sensor_id;sensor_type;location;lat;lon;timestamp;pressure;altitude;pressure_sealevel;temperature;humidity
75049;BME280;63803;53.120;8.764;2023-03-13T00:01:25;100316.25;;;22.40;36.55
75049;BME280;63803;53.120;8.764;2023-03-13T00:03:52;100306.19;;;22.40;37.06
75049;BME280;63803;53.120;8.764;2023-03-13T00:06:20;100299.69;;;22.41;36.68
75049;BME280;63803;53.120;8.764;2023-03-13T00:08:46;100299.47;;;22.43;36.68
75049;BME280;63803;53.120;8.764;2023-03-13T00:11:13;100291.09;;;22.44;36.45
75049;BME280;63803;53.120;8.764;2023-03-13T00:13:40;100284.84;;;22.44;36.49
75049;BME280;63803;53.120;8.764;2023-03-13T00:16:08;100297.34;;;22.45;36.79
75049;BME280;63803;53.120;8.764;2023-03-13T00:18:34;100286.47;;;22.45;36.43
75049;BME280;63803;53.120;8.764;2023-03-13T00:21:08;100278.34;;;22.45;36.93
75049;BME280;63803;53.120;8.764;2023-03-13T00:23:36;100270.22;;;22.45;36.73
75049;BME280;63803;53.120;8.764;2023-03-13T00:26:04;100260.19;;;22.45;36.84
75049;BME280;63803;53.120;8.764;2023-03-13T00:28:33;100261.25;;;22.44;36.59
75049;BME280;63803;53.120;8.764;2023-03-13T00:31:03;100258.53;;;22.44;36.88
75049;BME280;63803;53.120;8.764;2023-03-13T00:33:31;100253.69;;;22.46;36.92
75049;BME280;63803;53.120;8.764;2023-03-13T00:35:58;100245.31;;;22.48;36.77
75049;BME280;63803;53.120;8.764;2023-03-13T00:38:24;100245.31;;;22.48;36.80
75049;BME280;63803;53.120;8.764;2023-03-13T00:40:57;100242.00;;;22.46;36.49
75049;BME280;63803;53.120;8.764;2023-03-13T00:43:23;100231.97;;;22.46;36.58
75049;BME280;63803;53.120;8.764;2023-03-13T00:45:48;100243.66;;;22.47;36.61
75049;BME280;63803;53.120;8.764;2023-03-13T00:48:14;100236.34;;;22.47;36.38
75049;BME280;63803;53.120;8.764;2023-03-13T00:50:39;100229.03;;;22.48;36.77
75049;BME280;63803;53.120;8.764;2023-03-13T00:53:05;100230.91;;;22.47;36.85
75049;BME280;63803;53.120;8.764;2023-03-13T00:55:30;100223.59;;;22.48;36.41
75049;BME280;63803;53.120;8.764;2023-03-13T00:57:55;100218.97;;;22.48;36.41
75049;BME280;63803;53.120;8.764;2023-03-13T01:00:21;100217.91;;;22.49;36.35
75049;BME280;63803;53.120;8.764;2023-03-13T01:02:46;100211.66;;;22.49;36.82
75049;BME280;63803;53.120;8.764;2023-03-13T01:05:12;100207.31;;;22.48;36.38
75049;BME280;63803;53.120;8.764;2023-03-13T01:07:37;100206.22;;;22.49;36.37
75049;BME280;63803;53.120;8.764;2023-03-13T01:10:03;100203.53;;;22.49;36.29
75049;BME280;63803;53.120;8.764;2023-03-13T01:12:29;100191.03;;;22.48;36.32
75049;BME280;63803;53.120;8.764;2023-03-13T01:14:54;100183.69;;;22.48;36.35
75049;BME280;63803;53.120;8.764;2023-03-13T01:17:20;100177.59;;;22.41;36.95
75049;BME280;63803;53.120;8.764;2023-03-13T01:19:45;100170.53;;;22.40;36.92
75049;BME280;63803;53.120;8.764;2023-03-13T01:22:10;100167.69;;;22.47;36.73
75049;BME280;63803;53.120;8.764;2023-03-13T01:24:37;100153.31;;;22.46;36.52
75049;BME280;63803;53.120;8.764;2023-03-13T01:27:02;100152.25;;;22.47;36.61
75049;BME280;63803;53.120;8.764;2023-03-13T01:29:28;100150.34;;;22.48;36.58
75049;BME280;63803;53.120;8.764;2023-03-13T01:31:53;100135.97;;;22.47;36.90
75049;BME280;63803;53.120;8.764;2023-03-13T01:34:18;100132.41;;;22.47;36.84
75049;BME280;63803;53.120;8.764;2023-03-13T01:36:44;100134.06;;;22.48;36.71
75049;BME280;63803;53.120;8.764;2023-03-13T01:39:15;100128.63;;;22.48;36.47
75049;BME280;63803;53.120;8.764;2023-03-13T01:41:40;100123.22;;;22.48;36.55
75049;BME280;63803;53.120;8.764;2023-03-13T01:44:19;100110.72;;;22.47;36.82
75049;BME280;63803;53.120;8.764;2023-03-13T01:46:45;100104.22;;;22.48;36.47
75049;BME280;63803;53.120;8.764;2023-03-13T01:49:24;100095.50;;;22.46;36.68
75049;BME280;63803;53.120;8.764;2023-03-13T01:51:59;100090.66;;;22.48;36.83
75049;BME280;63803;53.120;8.764;2023-03-13T01:54:36;100084.41;;;22.47;36.69
75049;BME280;63803;53.120;8.764;2023-03-13T01:57:07;100074.38;;;22.48;36.89
75049;BME280;63803;53.120;8.764;2023-03-13T01:59:43;100075.16;;;22.48;36.35
75049;BME280;63803;53.120;8.764;2023-03-13T02:02:12;100056.19;;;22.48;36.73
75049;BME280;63803;53.120;8.764;2023-03-13T02:04:43;100051.84;;;22.47;36.56
75049;BME280;63803;53.120;8.764;2023-03-13T02:07:13;100048.56;;;22.45;36.51
75049;BME280;63803;53.120;8.764;2023-03-13T02:09:43;100046.66;;;22.46;36.75
75049;BME280;63803;53.120;8.764;2023-03-13T02:12:38;100023.91;;;22.47;36.58
75049;BME280;63803;53.120;8.764;2023-03-13T02:15:07;100023.63;;;22.48;36.72
75049;BME280;63803;53.120;8.764;2023-03-13T02:17:34;100020.13;;;22.48;36.36
75049;BME280;63803;53.120;8.764;2023-03-13T02:20:01;100007.63;;;22.47;36.31
75049;BME280;63803;53.120;8.764;2023-03-13T02:23:02;100009.25;;;22.48;36.68
75049;BME280;63803;53.120;8.764;2023-03-13T02:25:55;99999.47;;;22.47;36.76
75049;BME280;63803;53.120;8.764;2023-03-13T02:28:26;99992.41;;;22.46;36.84
75049;BME280;63803;53.120;8.764;2023-03-13T02:30:57;99976.72;;;22.48;36.48
75049;BME280;63803;53.120;8.764;2023-03-13T02:33:28;99973.16;;;22.47;36.57
75049;BME280;63803;53.120;8.764;2023-03-13T02:35:54;99972.34;;;22.47;36.48
75049;BME280;63803;53.120;8.764;2023-03-13T02:38:24;99958.78;;;22.47;36.81
75049;BME280;63803;53.120;8.764;2023-03-13T02:40:51;99953.34;;;22.47;36.44
75049;BME280;63803;53.120;8.764;2023-03-13T02:43:44;99944.94;;;22.48;36.29
75049;BME280;63803;53.120;8.764;2023-03-13T02:46:15;99936.00;;;22.48;36.35
75049;BME280;63803;53.120;8.764;2023-03-13T02:48:44;99926.22;;;22.47;36.19
75049;BME280;63803;53.120;8.764;2023-03-13T02:51:32;99926.22;;;22.47;36.78
75049;BME280;63803;53.120;8.764;2023-03-13T02:54:12;99917.03;;;22.48;36.47
75049;BME280;63803;53.120;8.764;2023-03-13T02:56:40;99915.91;;;22.49;36.40
75049;BME280;63803;53.120;8.764;2023-03-13T02:59:07;99910.50;;;22.49;36.42
75049;BME280;63803;53.120;8.764;2023-03-13T03:01:32;99905.06;;;22.49;36.79
75049;BME280;63803;53.120;8.764;2023-03-13T03:03:58;99900.91;;;22.41;36.64
75049;BME280;63803;53.120;8.764;2023-03-13T03:06:23;99893.09;;;22.45;36.77
75049;BME280;63803;53.120;8.764;2023-03-13T03:08:49;99887.72;;;22.50;36.43
75049;BME280;63803;53.120;8.764;2023-03-13T03:11:15;99885.00;;;22.50;36.35
75049;BME280;63803;53.120;8.764;2023-03-13T03:13:40;99874.41;;;22.48;36.38
75049;BME280;63803;53.120;8.764;2023-03-13T03:16:10;99871.69;;;22.48;36.63
75049;BME280;63803;53.120;8.764;2023-03-13T03:18:36;99863.53;;;22.48;36.57
75049;BME280;63803;53.120;8.764;2023-03-13T03:21:03;99862.75;;;22.48;36.60
75049;BME280;63803;53.120;8.764;2023-03-13T03:23:33;99858.41;;;22.47;36.35
75049;BME280;63803;53.120;8.764;2023-03-13T03:26:00;99852.16;;;22.46;36.15
75049;BME280;63803;53.120;8.764;2023-03-13T03:28:25;99847.53;;;22.47;36.67
75049;BME280;63803;53.120;8.764;2023-03-13T03:30:51;99838.81;;;22.45;36.35
75049;BME280;63803;53.120;8.764;2023-03-13T03:33:19;99838.59;;;22.46;36.25
75049;BME280;63803;53.120;8.764;2023-03-13T03:35:45;99827.72;;;22.46;36.41
75049;BME280;63803;53.120;8.764;2023-03-13T03:38:11;99820.13;;;22.48;36.17
75049;BME280;63803;53.120;8.764;2023-03-13T03:40:36;99801.44;;;22.47;36.45
75049;BME280;63803;53.120;8.764;2023-03-13T03:43:02;99801.97;;;22.49;35.92
75049;BME280;63803;53.120;8.764;2023-03-13T03:45:27;99796.25;;;22.45;36.26
75049;BME280;63803;53.120;8.764;2023-03-13T03:47:53;99787.34;;;22.50;36.43
75049;BME280;63803;53.120;8.764;2023-03-13T03:50:18;99776.72;;;22.48;36.74
75049;BME280;63803;53.120;8.764;2023-03-13T03:52:44;99773.22;;;22.48;36.31
75049;BME280;63803;53.120;8.764;2023-03-13T03:55:09;99770.22;;;22.49;36.26
75049;BME280;63803;53.120;8.764;2023-03-13T03:57:37;99749.59;;;22.48;36.54
75049;BME280;63803;53.120;8.764;2023-03-13T04:00:03;99751.53;;;22.48;36.69
75049;BME280;63803;53.120;8.764;2023-03-13T04:02:31;99746.59;;;22.45;36.17
75049;BME280;63803;53.120;8.764;2023-03-13T04:04:57;99737.63;;;22.44;36.32
75049;BME280;63803;53.120;8.764;2023-03-13T04:07:22;99745.78;;;22.44;36.67
75049;BME280;63803;53.120;8.764;2023-03-13T04:09:48;99738.44;;;22.45;36.16
75049;BME280;63803;53.120;8.764;2023-03-13T04:12:13;99728.66;;;22.44;36.16
75049;BME280;63803;53.120;8.764;2023-03-13T04:14:39;99720.53;;;22.44;36.24
75049;BME280;63803;53.120;8.764;2023-03-13T04:17:04;99711.56;;;22.43;36.00
75049;BME280;63803;53.120;8.764;2023-03-13T04:19:30;99711.31;;;22.45;36.32
75049;BME280;63803;53.120;8.764;2023-03-13T04:21:55;99701.28;;;22.45;36.44
75049;BME280;63803;53.120;8.764;2023-03-13T04:24:21;99693.16;;;22.45;36.17
75049;BME280;63803;53.120;8.764;2023-03-13T04:26:46;99689.88;;;22.43;36.30
75049;BME280;63803;53.120;8.764;2023-03-13T04:29:12;99677.69;;;22.46;35.99
75049;BME280;63803;53.120;8.764;2023-03-13T04:31:37;99669.81;;;22.44;36.26
75049;BME280;63803;53.120;8.764;2023-03-13T04:34:03;99659.22;;;22.43;36.20
75049;BME280;63803;53.120;8.764;2023-03-13T04:36:28;99647.28;;;22.44;36.43
75049;BME280;63803;53.120;8.764;2023-03-13T04:38:54;99642.69;;;22.44;35.82
75049;BME280;63803;53.120;8.764;2023-03-13T04:41:19;99636.69;;;22.42;36.04
75049;BME280;63803;53.120;8.764;2023-03-13T04:43:45;99640.78;;;22.45;36.32
75049;BME280;63803;53.120;8.764;2023-03-13T04:46:10;99628.56;;;22.42;36.04
75049;BME280;63803;53.120;8.764;2023-03-13T04:48:35;99634.50;;;22.39;36.07
75049;BME280;63803;53.120;8.764;2023-03-13T04:51:01;99632.34;;;22.41;36.04
75049;BME280;63803;53.120;8.764;2023-03-13T04:53:26;99621.47;;;22.41;36.21
75049;BME280;63803;53.120;8.764;2023-03-13T04:55:52;99617.13;;;22.40;36.11
75049;BME280;63803;53.120;8.764;2023-03-13T04:58:17;99610.09;;;22.39;35.99
75049;BME280;63803;53.120;8.764;2023-03-13T05:00:43;99617.41;;;22.39;36.46
75049;BME280;63803;53.120;8.764;2023-03-13T05:03:08;99604.94;;;22.38;36.03
75049;BME280;63803;53.120;8.764;2023-03-13T05:05:34;99610.91;;;22.40;36.20
75049;BME280;63803;53.120;8.764;2023-03-13T05:08:00;99604.09;;;22.37;36.49
75049;BME280;63803;53.120;8.764;2023-03-13T05:10:26;99597.59;;;22.38;36.72
75049;BME280;63803;53.120;8.764;2023-03-13T05:12:51;99585.94;;;22.38;36.33
75049;BME280;63803;53.120;8.764;2023-03-13T05:15:17;99585.94;;;22.38;36.54
75049;BME280;63803;53.120;8.764;2023-03-13T05:17:42;99591.63;;;22.36;36.25
75049;BME280;63803;53.120;8.764;2023-03-13T05:20:08;99578.88;;;22.37;36.09
75049;BME280;63803;53.120;8.764;2023-03-13T05:22:36;99577.81;;;22.38;36.29
75049;BME280;63803;53.120;8.764;2023-03-13T05:25:02;99565.06;;;22.38;36.31
75049;BME280;63803;53.120;8.764;2023-03-13T05:27:29;99568.03;;;22.37;36.00
75049;BME280;63803;53.120;8.764;2023-03-13T05:29:54;99552.56;;;22.37;36.21
75049;BME280;63803;53.120;8.764;2023-03-13T05:32:20;99550.94;;;22.36;36.16
75049;BME280;63803;53.120;8.764;2023-03-13T05:34:45;99545.50;;;22.36;35.93
75049;BME280;63803;53.120;8.764;2023-03-13T05:37:11;99541.41;;;22.34;35.89
75049;BME280;63803;53.120;8.764;2023-03-13T05:39:36;99536.53;;;22.36;36.01
75049;BME280;63803;53.120;8.764;2023-03-13T05:42:02;99536.81;;;22.34;36.02
75049;BME280;63803;53.120;8.764;2023-03-13T05:44:27;99541.41;;;22.34;36.40
75049;BME280;63803;53.120;8.764;2023-03-13T05:46:53;99529.75;;;22.33;36.23
75049;BME280;63803;53.120;8.764;2023-03-13T05:49:18;99529.75;;;22.33;36.19
75049;BME280;63803;53.120;8.764;2023-03-13T05:51:44;99524.31;;;22.33;36.45
75049;BME280;63803;53.120;8.764;2023-03-13T05:54:09;99520.53;;;22.34;36.39
75049;BME280;63803;53.120;8.764;2023-03-13T05:56:34;99519.72;;;22.34;36.01
75049;BME280;63803;53.120;8.764;2023-03-13T05:59:00;99508.31;;;22.32;35.85
75049;BME280;63803;53.120;8.764;2023-03-13T06:01:25;99504.50;;;22.33;36.52
75049;BME280;63803;53.120;8.764;2023-03-13T06:03:51;99498.28;;;22.32;36.39
75049;BME280;63803;53.120;8.764;2023-03-13T06:06:16;99498.00;;;22.34;35.98
75049;BME280;63803;53.120;8.764;2023-03-13T06:08:42;99487.16;;;22.34;36.03
75049;BME280;63803;53.120;8.764;2023-03-13T06:11:07;99487.16;;;22.34;36.24
75049;BME280;63803;53.120;8.764;2023-03-13T06:13:33;99471.16;;;22.32;35.85
75049;BME280;63803;53.120;8.764;2023-03-13T06:15:58;99469.25;;;22.33;36.06
75049;BME280;63803;53.120;8.764;2023-03-13T06:18:25;99471.97;;;22.33;35.90
75049;BME280;63803;53.120;8.764;2023-03-13T06:20:56;99466.53;;;22.33;35.95
75049;BME280;63803;53.120;8.764;2023-03-13T06:23:21;99471.97;;;22.33;35.90
75049;BME280;63803;53.120;8.764;2023-03-13T06:25:47;99460.31;;;22.32;35.78
75049;BME280;63803;53.120;8.764;2023-03-13T06:28:13;99466.53;;;22.33;36.42
75049;BME280;63803;53.120;8.764;2023-03-13T06:30:38;99467.34;;;22.33;36.29
75049;BME280;63803;53.120;8.764;2023-03-13T06:33:04;99460.03;;;22.34;36.23
75049;BME280;63803;53.120;8.764;2023-03-13T06:35:30;99466.53;;;22.33;36.37
75049;BME280;63803;53.120;8.764;2023-03-13T06:37:55;99456.78;;;22.32;36.07
75049;BME280;63803;53.120;8.764;2023-03-13T06:40:21;99459.50;;;22.32;36.16
75049;BME280;63803;53.120;8.764;2023-03-13T06:42:46;99451.09;;;22.33;36.40
75049;BME280;63803;53.120;8.764;2023-03-13T06:45:12;99458.41;;;22.33;36.26
75049;BME280;63803;53.120;8.764;2023-03-13T06:47:37;99442.13;;;22.33;36.14
75049;BME280;63803;53.120;8.764;2023-03-13T06:50:03;99444.31;;;22.31;36.11
75049;BME280;63803;53.120;8.764;2023-03-13T06:52:28;99449.72;;;22.31;36.12
75049;BME280;63803;53.120;8.764;2023-03-13T06:54:54;99437.81;;;22.32;36.33
75049;BME280;63803;53.120;8.764;2023-03-13T06:57:19;99435.09;;;22.32;36.25
75049;BME280;63803;53.120;8.764;2023-03-13T06:59:45;99438.63;;;22.32;36.10
75049;BME280;63803;53.120;8.764;2023-03-13T07:02:10;99433.19;;;22.32;35.91
75049;BME280;63803;53.120;8.764;2023-03-13T07:04:36;99437.81;;;22.32;36.24
75049;BME280;63803;53.120;8.764;2023-03-13T07:07:02;99434.28;;;22.31;36.37
75049;BME280;63803;53.120;8.764;2023-03-13T07:09:28;99435.34;;;22.30;36.49
75049;BME280;63803;53.120;8.764;2023-03-13T07:11:53;99435.09;;;22.32;36.40
75049;BME280;63803;53.120;8.764;2023-03-13T07:14:19;99428.84;;;22.31;35.87
75049;BME280;63803;53.120;8.764;2023-03-13T07:16:45;99421.78;;;22.30;36.19
75049;BME280;63803;53.120;8.764;2023-03-13T07:19:11;99428.03;;;22.31;35.88
75049;BME280;63803;53.120;8.764;2023-03-13T07:21:37;99415.28;;;22.31;36.00
75049;BME280;63803;53.120;8.764;2023-03-13T07:24:02;99433.47;;;22.31;35.99
75049;BME280;63803;53.120;8.764;2023-03-13T07:26:28;99428.03;;;22.31;36.16
75049;BME280;63803;53.120;8.764;2023-03-13T07:28:54;99438.06;;;22.30;36.19
75049;BME280;63803;53.120;8.764;2023-03-13T07:31:20;99433.47;;;22.31;36.30
75049;BME280;63803;53.120;8.764;2023-03-13T07:33:46;99432.63;;;22.30;36.03
75049;BME280;63803;53.120;8.764;2023-03-13T07:36:13;99432.63;;;22.30;35.79
75049;BME280;63803;53.120;8.764;2023-03-13T07:38:39;99429.94;;;22.30;36.36
75049;BME280;63803;53.120;8.764;2023-03-13T07:41:05;99429.94;;;22.30;35.96
75049;BME280;63803;53.120;8.764;2023-03-13T07:43:31;99424.25;;;22.32;36.18
75049;BME280;63803;53.120;8.764;2023-03-13T07:46:02;99411.75;;;22.31;35.96
75049;BME280;63803;53.120;8.764;2023-03-13T07:48:34;99428.84;;;22.31;36.11
75049;BME280;63803;53.120;8.764;2023-03-13T07:51:01;99423.44;;;22.31;35.95
75049;BME280;63803;53.120;8.764;2023-03-13T07:53:27;99428.84;;;22.31;36.12
75049;BME280;63803;53.120;8.764;2023-03-13T07:55:58;99428.84;;;22.31;36.21
75049;BME280;63803;53.120;8.764;2023-03-13T07:58:25;99424.25;;;22.32;35.94
75049;BME280;63803;53.120;8.764;2023-03-13T08:00:51;99426.16;;;22.31;36.00
75049;BME280;63803;53.120;8.764;2023-03-13T08:03:17;99422.59;;;22.31;36.27
75049;BME280;63803;53.120;8.764;2023-03-13T08:05:42;99419.91;;;22.31;36.37
75049;BME280;63803;53.120;8.764;2023-03-13T08:08:08;99419.06;;;22.30;36.03
75049;BME280;63803;53.120;8.764;2023-03-13T08:10:34;99412.59;;;22.31;36.45
75049;BME280;63803;53.120;8.764;2023-03-13T08:13:00;99405.53;;;22.30;36.35
75049;BME280;63803;53.120;8.764;2023-03-13T08:15:25;99403.63;;;22.31;36.04
75049;BME280;63803;53.120;8.764;2023-03-13T08:18:11;99411.75;;;22.31;36.02
75049;BME280;63803;53.120;8.764;2023-03-13T08:20:36;99400.91;;;22.31;36.04
75049;BME280;63803;53.120;8.764;2023-03-13T08:23:01;99400.91;;;22.31;36.19
75049;BME280;63803;53.120;8.764;2023-03-13T08:25:27;99400.09;;;22.30;36.21
75049;BME280;63803;53.120;8.764;2023-03-13T08:27:53;99394.66;;;22.30;36.16
75049;BME280;63803;53.120;8.764;2023-03-13T08:30:19;99392.78;;;22.31;36.30
75049;BME280;63803;53.120;8.764;2023-03-13T08:32:44;99407.97;;;22.32;36.14
75049;BME280;63803;53.120;8.764;2023-03-13T08:35:10;99399.28;;;22.30;35.83
75049;BME280;63803;53.120;8.764;2023-03-13T08:37:35;99395.50;;;22.31;35.84
75049;BME280;63803;53.120;8.764;2023-03-13T08:40:01;99408.22;;;22.30;35.92
75049;BME280;63803;53.120;8.764;2023-03-13T08:42:26;99396.31;;;22.31;36.19
75049;BME280;63803;53.120;8.764;2023-03-13T08:44:52;99397.38;;;22.30;36.46
75049;BME280;63803;53.120;8.764;2023-03-13T08:47:17;99399.28;;;22.30;35.90
75049;BME280;63803;53.120;8.764;2023-03-13T08:49:43;99395.50;;;22.31;36.42
75049;BME280;63803;53.120;8.764;2023-03-13T08:52:09;99380.28;;;22.30;36.51
75049;BME280;63803;53.120;8.764;2023-03-13T08:54:34;99401.72;;;22.31;36.00
75049;BME280;63803;53.120;8.764;2023-03-13T08:57:00;99396.81;;;22.28;36.22
75049;BME280;63803;53.120;8.764;2023-03-13T08:59:25;99397.38;;;22.30;36.37
75049;BME280;63803;53.120;8.764;2023-03-13T09:01:51;99398.19;;;22.31;36.29
75049;BME280;63803;53.120;8.764;2023-03-13T09:04:17;99406.59;;;22.29;36.39
75049;BME280;63803;53.120;8.764;2023-03-13T09:06:43;99403.63;;;22.31;36.29
75049;BME280;63803;53.120;8.764;2023-03-13T09:09:10;99419.06;;;22.30;36.55
75049;BME280;63803;53.120;8.764;2023-03-13T09:11:37;99400.91;;;22.31;35.85
75049;BME280;63803;53.120;8.764;2023-03-13T09:14:04;99409.88;;;22.31;36.02
75049;BME280;63803;53.120;8.764;2023-03-13T09:16:31;99401.72;;;22.31;36.41
75049;BME280;63803;53.120;8.764;2023-03-13T09:18:57;99410.94;;;22.30;36.36
75049;BME280;63803;53.120;8.764;2023-03-13T09:21:26;99407.97;;;22.32;36.39
75049;BME280;63803;53.120;8.764;2023-03-13T09:23:51;99410.69;;;22.32;36.49
75049;BME280;63803;53.120;8.764;2023-03-13T09:26:18;99412.84;;;22.30;36.62
75049;BME280;63803;53.120;8.764;2023-03-13T09:28:44;99394.66;;;22.30;35.93
75049;BME280;63803;53.120;8.764;2023-03-13T09:31:12;99407.97;;;22.32;36.01
75049;BME280;63803;53.120;8.764;2023-03-13T09:33:39;99405.53;;;22.30;36.24
75049;BME280;63803;53.120;8.764;2023-03-13T09:36:05;99397.63;;;22.29;36.60
75049;BME280;63803;53.120;8.764;2023-03-13T09:38:31;99407.41;;;22.30;36.19
75049;BME280;63803;53.120;8.764;2023-03-13T09:41:04;99412.84;;;22.30;36.16
75049;BME280;63803;53.120;8.764;2023-03-13T09:43:50;99414.72;;;22.29;36.29
75049;BME280;63803;53.120;8.764;2023-03-13T09:46:35;99419.06;;;22.30;36.19
75049;BME280;63803;53.120;8.764;2023-03-13T09:49:07;99413.91;;;22.29;36.00
75049;BME280;63803;53.120;8.764;2023-03-13T09:51:37;99396.31;;;22.31;36.19
75049;BME280;63803;53.120;8.764;2023-03-13T09:54:26;99403.38;;;22.32;35.99
75049;BME280;63803;53.120;8.764;2023-03-13T09:57:06;99398.19;;;22.31;36.00
75049;BME280;63803;53.120;8.764;2023-03-13T09:59:43;99392.78;;;22.31;36.36
75049;BME280;63803;53.120;8.764;2023-03-13T10:02:35;99392.22;;;22.34;36.34
75049;BME280;63803;53.120;8.764;2023-03-13T10:07:29;99394.13;;;22.33;36.35
75049;BME280;63803;53.120;8.764;2023-03-13T10:09:55;99400.94;;;22.36;35.89
75049;BME280;63803;53.120;8.764;2023-03-13T10:12:24;99390.34;;;22.34;36.22
75049;BME280;63803;53.120;8.764;2023-03-13T10:17:55;99384.91;;;22.34;36.35
75049;BME280;63803;53.120;8.764;2023-03-13T10:20:27;99386.00;;;22.33;35.98
75049;BME280;63803;53.120;8.764;2023-03-13T10:23:00;99377.03;;;22.33;36.43
75049;BME280;63803;53.120;8.764;2023-03-13T10:25:37;99376.50;;;22.31;36.62
75049;BME280;63803;53.120;8.764;2023-03-13T10:28:05;99379.75;;;22.33;36.11
75049;BME280;63803;53.120;8.764;2023-03-13T10:30:32;99378.97;;;22.32;36.02
75049;BME280;63803;53.120;8.764;2023-03-13T10:35:37;99374.31;;;22.33;36.29
75049;BME280;63803;53.120;8.764;2023-03-13T10:38:14;99374.31;;;22.33;35.99
75049;BME280;63803;53.120;8.764;2023-03-13T10:40:42;99374.31;;;22.33;36.50
75049;BME280;63803;53.120;8.764;2023-03-13T10:43:19;99370.81;;;22.32;35.87
75049;BME280;63803;53.120;8.764;2023-03-13T10:45:45;99385.19;;;22.33;36.51
75049;BME280;63803;53.120;8.764;2023-03-13T10:48:29;99381.69;;;22.32;35.91
75049;BME280;63803;53.120;8.764;2023-03-13T10:50:59;99381.69;;;22.32;36.33
75049;BME280;63803;53.120;8.764;2023-03-13T10:56:12;99381.38;;;22.34;36.55
75049;BME280;63803;53.120;8.764;2023-03-13T10:58:43;99370.53;;;22.34;36.33
75049;BME280;63803;53.120;8.764;2023-03-13T11:01:17;99373.25;;;22.34;36.05
75049;BME280;63803;53.120;8.764;2023-03-13T11:03:46;99369.72;;;22.33;36.02
75049;BME280;63803;53.120;8.764;2023-03-13T11:06:32;99361.88;;;22.32;36.43
75049;BME280;63803;53.120;8.764;2023-03-13T11:09:16;99371.63;;;22.33;36.37
75049;BME280;63803;53.120;8.764;2023-03-13T11:11:52;99353.72;;;22.32;36.12
75049;BME280;63803;53.120;8.764;2023-03-13T11:14:20;99355.63;;;22.31;36.74
75049;BME280;63803;53.120;8.764;2023-03-13T11:16:53;99358.88;;;22.33;36.45
75049;BME280;63803;53.120;8.764;2023-03-13T11:19:28;99354.56;;;22.32;36.12
75049;BME280;63803;53.120;8.764;2023-03-13T11:32:55;99343.41;;;22.34;36.48
75049;BME280;63803;53.120;8.764;2023-03-13T11:36:07;99342.34;;;22.35;36.16
75049;BME280;63803;53.120;8.764;2023-03-13T11:38:41;99360.25;;;22.36;36.48
75049;BME280;63803;53.120;8.764;2023-03-13T11:46:48;99355.34;;;22.33;36.14
75049;BME280;63803;53.120;8.764;2023-03-13T11:52:23;99341.78;;;22.33;36.19
75049;BME280;63803;53.120;8.764;2023-03-13T11:55:02;99339.88;;;22.33;36.49
75049;BME280;63803;53.120;8.764;2023-03-13T12:00:52;99335.28;;;22.34;36.65
75049;BME280;63803;53.120;8.764;2023-03-13T12:06:09;99329.31;;;22.32;36.74
75049;BME280;63803;53.120;8.764;2023-03-13T12:08:48;99319.00;;;22.34;36.16
75049;BME280;63803;53.120;8.764;2023-03-13T12:11:20;99311.16;;;22.32;36.12
75049;BME280;63803;53.120;8.764;2023-03-13T12:13:55;99307.34;;;22.33;36.29
75049;BME280;63803;53.120;8.764;2023-03-13T12:16:41;99309.78;;;22.35;36.52
75049;BME280;63803;53.120;8.764;2023-03-13T12:19:10;99306.00;;;22.36;36.43
75049;BME280;63803;53.120;8.764;2023-03-13T12:21:42;99301.66;;;22.35;36.02
75049;BME280;63803;53.120;8.764;2023-03-13T12:26:58;99307.91;;;22.35;36.38
75049;BME280;63803;53.120;8.764;2023-03-13T12:32:23;99291.88;;;22.34;36.17
75049;BME280;63803;53.120;8.764;2023-03-13T12:37:49;99265.84;;;22.33;36.58
75049;BME280;63803;53.120;8.764;2023-03-13T12:43:09;99263.94;;;22.33;36.50
75049;BME280;63803;53.120;8.764;2023-03-13T12:45:53;99253.41;;;22.32;36.42
75049;BME280;63803;53.120;8.764;2023-03-13T12:51:48;99248.50;;;22.34;36.43
75049;BME280;63803;53.120;8.764;2023-03-13T12:54:36;99255.00;;;22.33;36.12
75049;BME280;63803;53.120;8.764;2023-03-13T12:59:55;99242.25;;;22.33;36.39
75049;BME280;63803;53.120;8.764;2023-03-13T13:02:26;99220.56;;;22.33;36.47
75049;BME280;63803;53.120;8.764;2023-03-13T13:04:54;99226.81;;;22.34;35.84
75049;BME280;63803;53.120;8.764;2023-03-13T13:07:25;99209.72;;;22.33;36.18
75049;BME280;63803;53.120;8.764;2023-03-13T13:12:36;99201.56;;;22.33;36.42
75049;BME280;63803;53.120;8.764;2023-03-13T13:15:28;99194.56;;;22.32;35.98
75049;BME280;63803;53.120;8.764;2023-03-13T13:18:28;99193.19;;;22.30;36.49
75049;BME280;63803;53.120;8.764;2023-03-13T13:23:30;99187.19;;;22.33;36.16
75049;BME280;63803;53.120;8.764;2023-03-13T13:39:39;99172.03;;;22.32;36.07
75049;BME280;63803;53.120;8.764;2023-03-13T13:47:44;99148.72;;;22.31;36.26
75049;BME280;63803;53.120;8.764;2023-03-13T13:50:27;99159.28;;;22.32;36.69
75049;BME280;63803;53.120;8.764;2023-03-13T13:55:57;99139.50;;;22.32;37.04
75049;BME280;63803;53.120;8.764;2023-03-13T13:58:26;99163.59;;;22.33;37.25
75049;BME280;63803;53.120;8.764;2023-03-13T14:00:55;99146.53;;;22.33;37.69
75049;BME280;63803;53.120;8.764;2023-03-13T14:03:25;99171.31;;;21.94;37.97
75049;BME280;63803;53.120;8.764;2023-03-13T14:05:54;99159.72;;;21.47;38.37
75049;BME280;63803;53.120;8.764;2023-03-13T14:08:24;99140.97;;;21.92;38.23
75049;BME280;63803;53.120;8.764;2023-03-13T14:11:22;99135.13;;;22.15;37.50
75049;BME280;63803;53.120;8.764;2023-03-13T14:14:15;99134.59;;;22.24;37.76
75049;BME280;63803;53.120;8.764;2023-03-13T14:16:49;99125.63;;;22.28;38.07
75049;BME280;63803;53.120;8.764;2023-03-13T14:22:08;99142.22;;;22.32;38.46
75049;BME280;63803;53.120;8.764;2023-03-13T14:24:35;99126.75;;;22.32;38.79
75049;BME280;63803;53.120;8.764;2023-03-13T14:27:13;99128.34;;;22.33;38.37
75049;BME280;63803;53.120;8.764;2023-03-13T14:29:38;99135.41;;;22.34;38.58
75049;BME280;63803;53.120;8.764;2023-03-13T14:32:04;99129.72;;;22.36;39.07